Time;durP1;ratioP1;P1;durP2;ratioP2;P2;SDS_P1;SDS_P2;PMS_P1;PMS_P2;Temp;Humidity;BMP_temperature;BMP_pressure;BME280_temperature;BME280_humidity;BME280_pressure;Samples;Min_cycle;Max_cycle;Signal;HPM_P1;HPM_P2
2023/05/13 00:01:37;;;;;;;;;;;14.70;99.90;;;;;;5099669;28;19912;-65
2023/05/13 00:04:04;;;;;;;;;;;14.70;99.90;;;;;;5100089;28;19931;-65
2023/05/13 00:06:30;;;;;;;;;;;14.70;99.90;;;;;;5100141;28;19950;-65
2023/05/13 00:08:56;;;;;;;;;;;14.60;99.90;;;;;;5100230;28;19908;-65
2023/05/13 00:11:22;;;;;;;;;;;14.60;99.90;;;;;;5099831;28;19918;-65
2023/05/13 00:13:48;;;;;;;;;;;14.60;99.90;;;;;;5099536;28;19915;-65
2023/05/13 00:16:13;;;;;;;;;;;14.70;99.90;;;;;;5099990;28;19934;-64
2023/05/13 00:18:39;;;;;;;;;;;14.70;99.90;;;;;;5099844;28;19908;-65
2023/05/13 00:21:05;;;;;;;;;;;14.70;99.90;;;;;;5099648;28;19913;-65
2023/05/13 00:23:31;;;;;;;;;;;14.70;99.90;;;;;;5099715;28;19915;-65
2023/05/13 00:25:57;;;;;;;;;;;14.70;99.90;;;;;;5099528;28;19908;-65
2023/05/13 00:28:23;;;;;;;;;;;14.70;99.90;;;;;;5099615;28;19953;-65
2023/05/13 00:30:49;;;;;;;;;;;14.70;99.90;;;;;;5099430;28;19974;-65
2023/05/13 00:33:14;;;;;;;;;;;14.60;99.90;;;;;;5099358;28;20008;-65
2023/05/13 00:35:40;;;;;;;;;;;14.60;99.90;;;;;;5099766;28;19947;-65
2023/05/13 00:38:06;;;;;;;;;;;14.60;99.90;;;;;;5099236;28;19908;-65
2023/05/13 00:40:33;;;;;;;;;;;14.60;99.90;;;;;;5099139;28;19927;-65
2023/05/13 00:42:59;;;;;;;;;;;14.70;99.90;;;;;;5099219;28;20354;-64
2023/05/13 00:45:24;;;;;;;;;;;14.70;99.90;;;;;;5099300;28;19931;-65
2023/05/13 00:47:50;;;;;;;;;;;14.60;99.90;;;;;;5099549;28;19943;-64
2023/05/13 00:50:15;;;;;;;;;;;14.70;99.90;;;;;;5098880;28;19959;-65
2023/05/13 00:52:41;;;;;;;;;;;14.70;99.90;;;;;;5098961;28;19919;-65
2023/05/13 00:55:08;;;;;;;;;;;14.70;99.90;;;;;;5098911;28;19908;-65
2023/05/13 00:57:34;;;;;;;;;;;14.70;99.90;;;;;;5099317;28;19915;-65
2023/05/13 01:00:00;;;;;;;;;;;14.70;99.90;;;;;;5098860;28;19908;-65
2023/05/13 01:02:38;;;;;;;;;;;14.60;99.90;;;;;;5099018;28;19938;-65
2023/05/13 01:05:08;;;;;;;;;;;14.60;99.90;;;;;;5098963;28;19951;-65
2023/05/13 01:07:43;;;;;;;;;;;14.70;99.90;;;;;;5099087;28;19912;-65
2023/05/13 01:10:22;;;;;;;;;;;14.60;99.90;;;;;;5098826;28;19955;-65
2023/05/13 01:12:50;;;;;;;;;;;14.60;99.90;;;;;;5098871;28;19908;-65
2023/05/13 01:15:20;;;;;;;;;;;14.60;99.90;;;;;;5098428;28;19923;-65
2023/05/13 01:17:52;;;;;;;;;;;14.60;99.90;;;;;;5098688;28;19915;-65
2023/05/13 01:20:20;;;;;;;;;;;14.60;99.90;;;;;;5098618;28;19908;-65
2023/05/13 01:22:46;;;;;;;;;;;14.60;99.90;;;;;;5098644;28;19976;-65
2023/05/13 01:25:12;;;;;;;;;;;14.60;99.90;;;;;;5098508;28;20019;-65
2023/05/13 01:27:37;;;;;;;;;;;14.60;99.90;;;;;;5098396;28;19915;-65
2023/05/13 01:30:03;;;;;;;;;;;14.70;99.90;;;;;;5098566;28;19908;-65
2023/05/13 01:32:29;;;;;;;;;;;14.60;99.90;;;;;;5098547;28;19908;-65
2023/05/13 01:34:55;;;;;;;;;;;14.70;99.90;;;;;;5098528;28;19908;-65
2023/05/13 01:37:21;;;;;;;;;;;14.60;99.90;;;;;;5098224;28;20015;-65
2023/05/13 01:39:47;;;;;;;;;;;14.60;99.90;;;;;;5098678;28;19908;-65
2023/05/13 01:42:12;;;;;;;;;;;14.60;99.90;;;;;;5098348;28;20003;-65
2023/05/13 01:44:38;;;;;;;;;;;14.60;99.90;;;;;;5098399;28;20364;-65
2023/05/13 01:47:04;;;;;;;;;;;14.60;99.90;;;;;;5079937;28;19914;-65
2023/05/13 01:49:29;;;;;;;;;;;14.60;99.90;;;;;;5097944;28;19908;-65
2023/05/13 01:51:55;;;;;;;;;;;14.50;99.90;;;;;;5098068;28;20053;-65
2023/05/13 01:54:21;;;;;;;;;;;14.60;99.90;;;;;;5097846;28;19912;-65
2023/05/13 01:56:46;;;;;;;;;;;14.50;99.90;;;;;;5097874;28;19915;-65
2023/05/13 01:59:12;;;;;;;;;;;14.50;99.90;;;;;;5097917;28;19912;-65
2023/05/13 02:01:39;;;;;;;;;;;14.50;99.90;;;;;;5098127;28;20006;-65
2023/05/13 02:04:05;;;;;;;;;;;14.60;99.90;;;;;;5100607;28;19915;-65
2023/05/13 02:06:31;;;;;;;;;;;14.60;99.90;;;;;;5102232;28;20255;-65
2023/05/13 02:08:56;;;;;;;;;;;14.60;99.90;;;;;;5102330;28;19958;-65
2023/05/13 02:11:22;;;;;;;;;;;14.60;99.90;;;;;;5102300;28;19962;-65
2023/05/13 02:13:47;;;;;;;;;;;14.60;99.90;;;;;;5102031;28;20049;-65
2023/05/13 02:16:14;;;;;;;;;;;14.60;99.90;;;;;;5102145;28;19916;-65
2023/05/13 02:18:39;;;;;;;;;;;14.60;99.90;;;;;;5101859;28;20282;-65
2023/05/13 02:21:05;;;;;;;;;;;14.60;99.90;;;;;;5101596;28;20003;-65
2023/05/13 02:23:31;;;;;;;;;;;14.60;99.90;;;;;;5101850;28;19908;-65
2023/05/13 02:25:56;;;;;;;;;;;14.60;99.90;;;;;;5102317;28;19908;-65
2023/05/13 02:28:22;;;;;;;;;;;14.60;99.90;;;;;;5101753;28;19909;-65
2023/05/13 02:30:47;;;;;;;;;;;14.60;99.90;;;;;;5083683;28;20366;-65
2023/05/13 02:33:13;;;;;;;;;;;14.60;99.90;;;;;;5101722;28;19938;-65
2023/05/13 02:35:39;;;;;;;;;;;14.60;99.90;;;;;;5101945;28;19908;-65
2023/05/13 02:38:04;;;;;;;;;;;14.60;99.90;;;;;;5101803;28;19908;-65
2023/05/13 02:40:30;;;;;;;;;;;14.50;99.90;;;;;;5101284;28;20287;-65
2023/05/13 02:42:56;;;;;;;;;;;14.60;99.90;;;;;;5101687;28;20002;-65
2023/05/13 02:45:21;;;;;;;;;;;14.50;99.90;;;;;;5101789;28;20345;-65
2023/05/13 02:47:47;;;;;;;;;;;14.60;99.90;;;;;;5101792;28;19973;-65
2023/05/13 02:50:12;;;;;;;;;;;14.60;99.90;;;;;;5101604;28;19908;-65
2023/05/13 02:52:38;;;;;;;;;;;14.50;99.90;;;;;;5101441;28;19908;-65
2023/05/13 02:55:08;;;;;;;;;;;14.50;99.90;;;;;;5101304;28;19909;-65
2023/05/13 02:57:34;;;;;;;;;;;14.60;99.90;;;;;;5101314;28;19964;-65
2023/05/13 03:00:00;;;;;;;;;;;14.60;99.90;;;;;;5101092;28;20293;-65
2023/05/13 03:02:26;;;;;;;;;;;14.60;99.90;;;;;;5101136;28;20007;-65
2023/05/13 03:04:53;;;;;;;;;;;14.60;99.90;;;;;;5101250;28;19995;-65
2023/05/13 03:07:19;;;;;;;;;;;14.50;99.90;;;;;;5101066;28;19915;-65
2023/05/13 03:09:45;;;;;;;;;;;14.60;99.90;;;;;;5101171;28;20395;-65
2023/05/13 03:12:10;;;;;;;;;;;14.50;99.90;;;;;;5101257;28;20359;-65
2023/05/13 03:14:36;;;;;;;;;;;14.50;99.90;;;;;;5100568;28;19920;-65
2023/05/13 03:17:02;;;;;;;;;;;14.50;99.90;;;;;;5100729;28;19995;-65
2023/05/13 03:19:28;;;;;;;;;;;14.50;99.90;;;;;;5100749;28;19908;-65
2023/05/13 03:21:53;;;;;;;;;;;14.50;99.90;;;;;;5101097;28;19912;-65
2023/05/13 03:24:19;;;;;;;;;;;14.50;99.90;;;;;;5100927;28;19908;-65
2023/05/13 03:26:44;;;;;;;;;;;14.50;99.90;;;;;;5100785;28;19908;-65
2023/05/13 03:29:10;;;;;;;;;;;14.50;99.90;;;;;;5100899;28;19908;-65
2023/05/13 03:31:36;;;;;;;;;;;14.40;99.90;;;;;;5100765;28;20313;-65
2023/05/13 03:34:01;;;;;;;;;;;14.40;99.90;;;;;;5100558;28;19920;-65
2023/05/13 03:36:27;;;;;;;;;;;14.40;99.90;;;;;;5100735;28;20398;-65
2023/05/13 03:38:53;;;;;;;;;;;14.40;99.90;;;;;;5100865;28;19908;-65
2023/05/13 03:41:18;;;;;;;;;;;14.40;99.90;;;;;;5100458;28;19926;-65
2023/05/13 03:43:45;;;;;;;;;;;14.40;99.90;;;;;;5100330;28;19909;-65
2023/05/13 03:46:10;;;;;;;;;;;14.40;99.90;;;;;;5100448;28;19916;-65
2023/05/13 03:48:36;;;;;;;;;;;14.40;99.90;;;;;;5100645;28;20465;-65
2023/05/13 03:51:02;;;;;;;;;;;14.40;99.90;;;;;;5100197;28;19916;-65
2023/05/13 03:53:28;;;;;;;;;;;14.40;99.90;;;;;;5100352;28;19909;-65
2023/05/13 03:55:53;;;;;;;;;;;14.30;99.90;;;;;;5100279;28;20359;-65
2023/05/13 03:58:21;;;;;;;;;;;14.30;99.90;;;;;;5100320;28;19909;-64
2023/05/13 04:00:47;;;;;;;;;;;14.30;99.90;;;;;;5100133;28;19912;-65
2023/05/13 04:03:14;;;;;;;;;;;14.30;99.90;;;;;;5100026;28;19961;-65
2023/05/13 04:05:40;;;;;;;;;;;14.30;99.90;;;;;;5100076;28;19908;-65
2023/05/13 04:08:06;;;;;;;;;;;14.30;99.90;;;;;;5099866;28;19908;-65
2023/05/13 04:10:31;;;;;;;;;;;14.30;99.90;;;;;;5099599;28;19912;-65
2023/05/13 04:12:57;;;;;;;;;;;14.30;99.90;;;;;;5100207;28;19908;-65
2023/05/13 04:15:23;;;;;;;;;;;14.30;99.90;;;;;;5099484;28;19926;-65
2023/05/13 04:17:48;;;;;;;;;;;14.20;99.90;;;;;;5099662;28;19912;-65
2023/05/13 04:20:14;;;;;;;;;;;14.20;99.90;;;;;;5099369;28;19994;-65
2023/05/13 04:22:40;;;;;;;;;;;14.20;99.90;;;;;;5099506;28;19967;-65
2023/05/13 04:25:05;;;;;;;;;;;14.10;99.90;;;;;;5099499;28;19932;-65
2023/05/13 04:27:31;;;;;;;;;;;14.10;99.90;;;;;;5098972;28;20448;-65
2023/05/13 04:29:57;;;;;;;;;;;14.00;99.90;;;;;;5099854;28;19930;-65
2023/05/13 04:32:22;;;;;;;;;;;13.90;99.90;;;;;;5099457;28;19919;-65
2023/05/13 04:34:48;;;;;;;;;;;13.90;99.90;;;;;;5099734;28;20348;-65
2023/05/13 04:37:14;;;;;;;;;;;13.80;99.90;;;;;;5099468;28;20370;-65
2023/05/13 04:39:40;;;;;;;;;;;13.70;99.90;;;;;;5099172;28;19908;-65
2023/05/13 04:42:06;;;;;;;;;;;13.70;99.90;;;;;;5099329;28;20318;-65
2023/05/13 04:44:32;;;;;;;;;;;13.60;99.90;;;;;;5099398;28;20432;-65
2023/05/13 04:46:58;;;;;;;;;;;13.60;99.90;;;;;;5099388;28;19908;-65
2023/05/13 04:49:23;;;;;;;;;;;13.50;99.90;;;;;;5099136;28;19908;-65
2023/05/13 04:51:49;;;;;;;;;;;13.50;99.90;;;;;;5099036;28;19908;-65
2023/05/13 04:54:14;;;;;;;;;;;13.50;99.90;;;;;;5099300;28;19915;-65
2023/05/13 04:56:40;;;;;;;;;;;13.40;99.90;;;;;;5099381;28;19909;-64
2023/05/13 04:59:07;;;;;;;;;;;13.40;99.90;;;;;;5098925;28;19931;-65
2023/05/13 05:01:32;;;;;;;;;;;13.40;99.90;;;;;;5098736;28;19951;-64
2023/05/13 05:03:58;;;;;;;;;;;13.40;99.90;;;;;;5098887;28;19908;-65
2023/05/13 05:06:24;;;;;;;;;;;13.40;99.90;;;;;;5098724;28;19964;-65
2023/05/13 05:08:49;;;;;;;;;;;13.40;99.90;;;;;;5098755;28;20003;-65
2023/05/13 05:11:15;;;;;;;;;;;13.40;99.90;;;;;;5098611;28;19908;-65
2023/05/13 05:13:41;;;;;;;;;;;13.40;99.90;;;;;;5098824;28;19909;-65
2023/05/13 05:16:07;;;;;;;;;;;13.40;99.90;;;;;;5098394;28;20021;-65
2023/05/13 05:18:34;;;;;;;;;;;13.50;99.90;;;;;;5098307;28;19974;-65
2023/05/13 05:21:00;;;;;;;;;;;13.60;99.90;;;;;;5098294;28;20285;-65
2023/05/13 05:23:26;;;;;;;;;;;13.60;99.90;;;;;;5098448;28;19908;-65
2023/05/13 05:25:52;;;;;;;;;;;13.70;99.90;;;;;;5098698;28;19918;-65
2023/05/13 05:28:18;;;;;;;;;;;13.70;99.90;;;;;;5098580;28;19957;-65
2023/05/13 05:30:43;;;;;;;;;;;13.80;99.90;;;;;;5098334;28;19908;-65
2023/05/13 05:33:09;;;;;;;;;;;13.80;99.90;;;;;;5098388;28;19912;-65
2023/05/13 05:35:37;;;;;;;;;;;13.90;99.90;;;;;;5098207;28;19962;-65
2023/05/13 05:38:06;;;;;;;;;;;13.90;99.90;;;;;;5098393;28;19912;-65
2023/05/13 05:40:32;;;;;;;;;;;14.00;99.90;;;;;;5097946;28;20429;-65
2023/05/13 05:42:57;;;;;;;;;;;13.90;99.90;;;;;;5098114;28;19908;-65
2023/05/13 05:45:23;;;;;;;;;;;14.00;99.90;;;;;;5097888;28;19908;-65
2023/05/13 05:47:48;;;;;;;;;;;14.00;99.90;;;;;;5098102;28;19953;-65
2023/05/13 05:50:14;;;;;;;;;;;14.00;99.90;;;;;;5097834;28;19961;-65
2023/05/13 05:52:40;;;;;;;;;;;14.00;99.90;;;;;;5098222;28;19908;-65
2023/05/13 05:55:06;;;;;;;;;;;14.10;99.90;;;;;;5097946;28;19909;-65
2023/05/13 05:57:32;;;;;;;;;;;14.10;99.90;;;;;;5097395;28;19930;-65
2023/05/13 05:59:57;;;;;;;;;;;14.10;99.90;;;;;;5102362;28;20379;-65
2023/05/13 06:02:23;;;;;;;;;;;14.00;99.90;;;;;;5115974;28;19918;-65
2023/05/13 06:04:49;;;;;;;;;;;14.10;99.90;;;;;;5097972;28;20456;-65
2023/05/13 06:07:14;;;;;;;;;;;14.10;99.90;;;;;;5098224;28;19915;-65
2023/05/13 06:09:40;;;;;;;;;;;14.10;99.90;;;;;;5097977;28;19959;-65
2023/05/13 06:12:06;;;;;;;;;;;14.10;99.90;;;;;;5097792;28;20326;-65
2023/05/13 06:14:31;;;;;;;;;;;14.10;99.90;;;;;;5097892;28;19950;-64
2023/05/13 06:16:57;;;;;;;;;;;14.20;99.90;;;;;;5098205;28;20931;-65
2023/05/13 06:19:23;;;;;;;;;;;14.20;99.90;;;;;;5097715;28;19908;-65
2023/05/13 06:21:48;;;;;;;;;;;14.30;99.90;;;;;;5115779;28;19916;-65
2023/05/13 06:24:14;;;;;;;;;;;14.30;99.90;;;;;;5116710;28;19907;-65
2023/05/13 06:26:40;;;;;;;;;;;14.30;99.90;;;;;;5116174;28;20006;-65
2023/05/13 06:29:05;;;;;;;;;;;14.40;99.90;;;;;;5117540;28;19911;-65
2023/05/13 06:31:31;;;;;;;;;;;14.50;99.90;;;;;;5117931;28;19963;-65
2023/05/13 06:33:57;;;;;;;;;;;14.50;99.90;;;;;;5118414;28;20000;-65
2023/05/13 06:36:22;;;;;;;;;;;14.60;99.90;;;;;;5117902;28;19935;-64
2023/05/13 06:38:48;;;;;;;;;;;14.60;99.90;;;;;;5118321;28;20002;-65
2023/05/13 06:41:14;;;;;;;;;;;14.60;99.90;;;;;;5117797;28;20283;-65
2023/05/13 06:43:40;;;;;;;;;;;14.70;99.90;;;;;;5117840;28;19908;-65
2023/05/13 06:46:05;;;;;;;;;;;14.70;99.90;;;;;;5117653;28;19930;-65
2023/05/13 06:48:31;;;;;;;;;;;14.70;99.90;;;;;;5117203;28;19999;-65
2023/05/13 06:50:57;;;;;;;;;;;14.70;99.90;;;;;;5121659;28;19908;-65
2023/05/13 06:53:22;;;;;;;;;;;14.70;99.90;;;;;;5121785;28;19911;-65
2023/05/13 06:55:48;;;;;;;;;;;14.50;99.90;;;;;;5121502;28;19915;-65
2023/05/13 06:58:14;;;;;;;;;;;14.50;99.90;;;;;;5121701;28;19907;-65
2023/05/13 07:00:39;;;;;;;;;;;14.50;99.90;;;;;;5121321;28;19915;-65
2023/05/13 07:03:06;;;;;;;;;;;14.50;99.90;;;;;;5121806;28;19908;-65
2023/05/13 07:05:32;;;;;;;;;;;14.50;99.90;;;;;;5121636;28;20386;-65
2023/05/13 07:07:57;;;;;;;;;;;14.60;99.90;;;;;;5128687;27;19911;-65
2023/05/13 07:10:23;;;;;;;;;;;14.60;99.90;;;;;;5141840;27;19911;-65
2023/05/13 07:12:49;;;;;;;;;;;14.60;99.90;;;;;;5122479;27;19975;-65
2023/05/13 07:15:15;;;;;;;;;;;14.70;99.90;;;;;;5100774;28;19994;-65
2023/05/13 07:17:41;;;;;;;;;;;14.80;99.90;;;;;;5100674;28;20252;-65
2023/05/13 07:20:07;;;;;;;;;;;14.80;99.90;;;;;;5100654;28;20041;-65
2023/05/13 07:22:33;;;;;;;;;;;14.80;99.90;;;;;;5100627;28;20046;-65
2023/05/13 07:24:59;;;;;;;;;;;14.80;99.90;;;;;;5098669;28;19908;-65
2023/05/13 07:27:25;;;;;;;;;;;14.80;99.90;;;;;;5099488;28;19921;-65
2023/05/13 07:29:50;;;;;;;;;;;14.80;99.90;;;;;;5098718;28;19912;-65
2023/05/13 07:32:16;;;;;;;;;;;14.80;99.90;;;;;;5099839;28;19914;-65
2023/05/13 07:34:42;;;;;;;;;;;14.90;99.90;;;;;;5100424;28;19979;-65
2023/05/13 07:37:07;;;;;;;;;;;14.90;99.90;;;;;;5100457;28;19930;-65
2023/05/13 07:39:34;;;;;;;;;;;14.90;99.90;;;;;;5100213;28;20326;-65
2023/05/13 07:41:59;;;;;;;;;;;14.90;99.90;;;;;;5100147;28;19919;-65
2023/05/13 07:44:25;;;;;;;;;;;14.90;99.90;;;;;;5100431;28;19908;-65
2023/05/13 07:46:52;;;;;;;;;;;14.90;99.90;;;;;;5100148;28;20029;-65
2023/05/13 07:49:19;;;;;;;;;;;14.90;99.90;;;;;;5099842;28;20359;-65
2023/05/13 07:51:44;;;;;;;;;;;14.90;99.90;;;;;;5099724;28;19954;-65
2023/05/13 07:54:10;;;;;;;;;;;14.80;99.90;;;;;;5100181;28;19909;-65
2023/05/13 07:56:36;;;;;;;;;;;14.90;99.90;;;;;;5099917;28;19909;-65
2023/05/13 07:59:02;;;;;;;;;;;14.90;99.90;;;;;;5099808;28;19912;-65
2023/05/13 08:01:28;;;;;;;;;;;15.00;99.90;;;;;;5098679;28;19912;-65
2023/05/13 08:03:54;;;;;;;;;;;14.90;99.90;;;;;;5099614;28;19916;-65
2023/05/13 08:06:20;;;;;;;;;;;15.00;99.90;;;;;;5099696;28;19916;-65
2023/05/13 08:08:45;;;;;;;;;;;14.90;99.90;;;;;;5100063;28;19908;-65
2023/05/13 08:11:12;;;;;;;;;;;15.10;99.90;;;;;;5099407;28;20371;-65
2023/05/13 08:13:38;;;;;;;;;;;15.20;99.90;;;;;;5099640;28;20362;-65
2023/05/13 08:16:05;;;;;;;;;;;15.30;99.90;;;;;;5099051;28;19924;-65
2023/05/13 08:18:31;;;;;;;;;;;15.30;99.90;;;;;;5099233;28;20291;-65
2023/05/13 08:20:57;;;;;;;;;;;15.30;99.90;;;;;;5099304;28;19912;-65
2023/05/13 08:23:25;;;;;;;;;;;15.20;99.90;;;;;;5098560;28;20455;-65
2023/05/13 08:25:50;;;;;;;;;;;15.30;99.90;;;;;;5099574;28;19999;-65
2023/05/13 08:28:16;;;;;;;;;;;15.40;99.90;;;;;;5099824;28;19909;-65
2023/05/13 08:30:43;;;;;;;;;;;15.40;99.90;;;;;;5099608;28;19967;-65
2023/05/13 08:33:10;;;;;;;;;;;15.40;99.90;;;;;;5099190;28;19908;-65
2023/05/13 08:35:35;;;;;;;;;;;15.40;99.90;;;;;;5098660;28;19908;-65
2023/05/13 08:38:04;;;;;;;;;;;15.40;99.90;;;;;;5099320;28;19942;-65
2023/05/13 08:40:30;;;;;;;;;;;15.40;99.90;;;;;;5098993;28;20299;-65
2023/05/13 08:42:57;;;;;;;;;;;15.50;99.90;;;;;;5098852;28;19954;-65
2023/05/13 08:45:25;;;;;;;;;;;15.50;99.90;;;;;;5099177;28;19969;-65
2023/05/13 08:47:53;;;;;;;;;;;15.50;99.90;;;;;;5098919;28;19930;-65
2023/05/13 08:50:19;;;;;;;;;;;15.50;99.90;;;;;;5098884;28;20291;-65
2023/05/13 08:52:45;;;;;;;;;;;15.50;99.90;;;;;;5099616;28;19908;-65
2023/05/13 08:55:11;;;;;;;;;;;15.50;99.90;;;;;;5099218;28;20402;-65
2023/05/13 08:57:37;;;;;;;;;;;15.50;99.90;;;;;;5098761;28;19908;-65
2023/05/13 09:00:04;;;;;;;;;;;15.60;99.90;;;;;;5098902;28;19912;-65
2023/05/13 09:02:29;;;;;;;;;;;15.60;99.90;;;;;;5098604;28;19953;-65
2023/05/13 09:04:58;;;;;;;;;;;15.70;99.90;;;;;;5098703;28;20370;-65
2023/05/13 09:07:24;;;;;;;;;;;15.90;99.90;;;;;;5098568;28;19908;-65
2023/05/13 09:09:50;;;;;;;;;;;16.00;99.90;;;;;;5098541;28;19915;-65
2023/05/13 09:12:34;;;;;;;;;;;16.00;99.90;;;;;;5098028;28;19915;-65
2023/05/13 09:14:59;;;;;;;;;;;16.10;99.90;;;;;;5098327;28;19920;-65
2023/05/13 09:17:25;;;;;;;;;;;16.20;99.90;;;;;;5098458;28;19916;-65
2023/05/13 09:19:51;;;;;;;;;;;16.20;99.90;;;;;;5098646;28;19912;-65
2023/05/13 09:22:17;;;;;;;;;;;16.20;99.90;;;;;;5098237;28;19912;-65
2023/05/13 09:24:52;;;;;;;;;;;16.20;99.90;;;;;;5098354;28;19919;-65
2023/05/13 09:27:22;;;;;;;;;;;16.20;99.90;;;;;;5098477;28;19945;-65
2023/05/13 09:29:57;;;;;;;;;;;16.30;99.90;;;;;;5098116;28;20359;-65
2023/05/13 09:32:23;;;;;;;;;;;16.30;99.90;;;;;;5098294;28;19908;-65
2023/05/13 09:34:48;;;;;;;;;;;16.40;99.90;;;;;;5098168;28;19915;-65
2023/05/13 09:37:16;;;;;;;;;;;16.50;99.90;;;;;;5097861;28;19908;-65
2023/05/13 09:39:42;;;;;;;;;;;16.30;99.90;;;;;;5098045;28;19908;-65
2023/05/13 09:42:17;;;;;;;;;;;16.30;99.90;;;;;;5098211;28;19912;-65
2023/05/13 09:44:43;;;;;;;;;;;16.30;99.90;;;;;;5097883;28;19909;-65
2023/05/13 09:47:12;;;;;;;;;;;16.20;99.90;;;;;;5098352;28;19908;-65
2023/05/13 09:49:39;;;;;;;;;;;16.20;99.90;;;;;;5097943;28;20394;-65
2023/05/13 09:52:08;;;;;;;;;;;16.10;99.90;;;;;;5097689;28;19908;-65
2023/05/13 09:54:35;;;;;;;;;;;16.10;99.90;;;;;;5097590;28;19931;-65
2023/05/13 09:57:02;;;;;;;;;;;16.20;99.90;;;;;;5097979;28;19916;-65
2023/05/13 09:59:32;;;;;;;;;;;16.20;99.90;;;;;;5097509;28;20371;-65
2023/05/13 10:01:59;;;;;;;;;;;16.40;99.90;;;;;;5097922;28;20374;-65
2023/05/13 10:04:25;;;;;;;;;;;16.60;99.90;;;;;;5097746;28;19955;-65
2023/05/13 10:06:51;;;;;;;;;;;16.80;99.90;;;;;;5098178;28;19909;-65
2023/05/13 10:09:17;;;;;;;;;;;16.90;99.90;;;;;;5098115;28;19965;-65
2023/05/13 10:11:45;;;;;;;;;;;16.80;99.90;;;;;;5097841;28;20702;-65
2023/05/13 10:14:10;;;;;;;;;;;16.80;99.90;;;;;;5097459;28;19976;-65
2023/05/13 10:16:36;;;;;;;;;;;16.80;99.90;;;;;;5097650;28;19916;-65
2023/05/13 10:19:03;;;;;;;;;;;16.90;99.90;;;;;;5097540;28;19912;-65
2023/05/13 10:21:30;;;;;;;;;;;17.20;99.90;;;;;;5097348;28;19912;-65
2023/05/13 10:23:55;;;;;;;;;;;17.20;99.90;;;;;;5098199;28;19908;-65
2023/05/13 10:26:21;;;;;;;;;;;17.30;99.90;;;;;;5101892;28;19908;-65
2023/05/13 10:28:48;;;;;;;;;;;17.40;99.90;;;;;;5102040;28;19908;-65
2023/05/13 10:31:14;;;;;;;;;;;17.40;99.90;;;;;;5101633;28;19908;-65
2023/05/13 10:33:40;;;;;;;;;;;17.60;99.90;;;;;;5101779;28;19987;-65
2023/05/13 10:36:15;;;;;;;;;;;17.90;99.90;;;;;;5101364;28;19946;-65
2023/05/13 10:38:49;;;;;;;;;;;18.30;99.90;;;;;;5101677;28;19947;-65
2023/05/13 10:41:44;;;;;;;;;;;18.40;99.90;;;;;;5101582;28;19975;-65
2023/05/13 10:44:10;;;;;;;;;;;18.30;99.90;;;;;;5087638;28;19931;-65
2023/05/13 10:46:38;;;;;;;;;;;18.30;99.90;;;;;;5101716;28;19998;-65
2023/05/13 10:49:04;;;;;;;;;;;18.50;99.90;;;;;;5101626;28;19909;-65
2023/05/13 10:51:31;;;;;;;;;;;18.60;99.90;;;;;;5101385;28;19916;-65
2023/05/13 10:53:57;;;;;;;;;;;19.00;99.90;;;;;;5101417;28;19908;-65
2023/05/13 10:56:27;;;;;;;;;;;18.90;99.90;;;;;;5101364;28;19999;-66
2023/05/13 10:59:03;;;;;;;;;;;19.50;99.90;;;;;;5101208;28;19912;-66
2023/05/13 11:01:29;;;;;;;;;;;19.80;99.90;;;;;;5100861;28;19912;-65
2023/05/13 11:03:56;;;;;;;;;;;19.50;99.90;;;;;;5101156;28;19914;-66
2023/05/13 11:06:34;;;;;;;;;;;19.60;99.90;;;;;;5101389;28;19930;-66
2023/05/13 11:09:00;;;;;;;;;;;20.00;99.90;;;;;;5100855;28;19915;-66
2023/05/13 11:11:28;;;;;;;;;;;20.70;99.90;;;;;;5101019;28;19908;-66
2023/05/13 11:13:54;;;;;;;;;;;21.50;99.90;;;;;;5100905;28;19915;-66
2023/05/13 11:16:21;;;;;;;;;;;22.50;99.90;;;;;;5100335;28;19920;-66
2023/05/13 11:18:47;;;;;;;;;;;23.50;99.90;;;;;;5100601;28;19930;-66
2023/05/13 11:21:13;;;;;;;;;;;23.70;97.30;;;;;;5100806;28;20008;-66
2023/05/13 11:23:52;;;;;;;;;;;24.50;99.90;;;;;;5100568;28;19912;-66
2023/05/13 11:26:18;;;;;;;;;;;25.30;95.10;;;;;;5100783;28;19915;-65
2023/05/13 11:28:54;;;;;;;;;;;24.00;88.40;;;;;;5100652;28;19908;-66
2023/05/13 11:31:21;;;;;;;;;;;24.40;93.80;;;;;;5100299;28;20374;-66
2023/05/13 11:34:05;;;;;;;;;;;25.50;98.90;;;;;;5100388;28;19908;-66
2023/05/13 11:36:32;;;;;;;;;;;26.20;75.60;;;;;;5100086;28;19915;-66
2023/05/13 11:39:10;;;;;;;;;;;25.80;74.70;;;;;;5100156;28;20317;-66
2023/05/13 11:41:36;;;;;;;;;;;25.50;89.90;;;;;;5100299;28;19913;-66
2023/05/13 11:44:03;;;;;;;;;;;25.70;69.50;;;;;;5100425;28;20377;-66
2023/05/13 11:46:29;;;;;;;;;;;25.40;78.00;;;;;;5100150;28;19909;-66
2023/05/13 11:48:54;;;;;;;;;;;24.80;68.00;;;;;;5100525;28;20316;-66
2023/05/13 11:51:20;;;;;;;;;;;24.60;77.60;;;;;;5100060;28;20313;-66
2023/05/13 11:53:46;;;;;;;;;;;24.50;78.90;;;;;;5100072;28;19908;-66
2023/05/13 11:56:12;;;;;;;;;;;23.40;76.50;;;;;;5100289;28;19908;-66
2023/05/13 11:58:37;;;;;;;;;;;23.20;84.60;;;;;;5099774;28;19912;-66
2023/05/13 12:01:03;;;;;;;;;;;24.20;96.20;;;;;;5099731;28;19912;-66
2023/05/13 12:03:29;;;;;;;;;;;25.40;82.20;;;;;;5099976;28;19935;-66
2023/05/13 12:06:01;;;;;;;;;;;26.10;86.50;;;;;;5099960;28;19959;-66
2023/05/13 12:08:26;;;;;;;;;;;26.50;89.90;;;;;;5099894;28;19908;-66
2023/05/13 12:10:52;;;;;;;;;;;26.40;84.70;;;;;;5099667;28;19912;-66
2023/05/13 12:13:19;;;;;;;;;;;27.30;73.10;;;;;;5099558;28;19908;-66
2023/05/13 12:15:44;;;;;;;;;;;26.70;71.10;;;;;;5099454;28;19920;-66
2023/05/13 12:18:10;;;;;;;;;;;25.30;64.00;;;;;;5099477;28;20042;-66
2023/05/13 12:20:37;;;;;;;;;;;24.70;71.50;;;;;;5099367;28;19908;-66
2023/05/13 12:23:03;;;;;;;;;;;24.80;70.50;;;;;;5099111;28;19916;-66
2023/05/13 12:25:39;;;;;;;;;;;24.00;73.20;;;;;;5099231;28;20348;-66
2023/05/13 12:28:05;;;;;;;;;;;24.40;84.10;;;;;;5099277;28;19931;-66
2023/05/13 12:30:38;;;;;;;;;;;24.90;82.90;;;;;;5099278;28;20244;-66
2023/05/13 12:33:03;;;;;;;;;;;25.20;75.40;;;;;;5099445;28;19947;-66
2023/05/13 12:35:30;;;;;;;;;;;25.50;73.70;;;;;;5099193;28;19908;-66
2023/05/13 12:38:02;;;;;;;;;;;25.70;71.80;;;;;;5099609;28;19999;-66
2023/05/13 12:40:28;;;;;;;;;;;25.80;74.30;;;;;;5099340;28;19909;-66
2023/05/13 12:42:57;;;;;;;;;;;25.60;68.40;;;;;;5099134;28;20389;-66
2023/05/13 12:45:25;;;;;;;;;;;25.40;67.40;;;;;;5098822;28;19966;-66
2023/05/13 12:47:51;;;;;;;;;;;24.90;72.20;;;;;;5098637;28;19908;-66
2023/05/13 12:50:17;;;;;;;;;;;25.30;73.20;;;;;;5098884;28;19908;-66
2023/05/13 12:52:42;;;;;;;;;;;25.50;68.70;;;;;;5099261;28;19912;-66
2023/05/13 12:55:08;;;;;;;;;;;25.30;68.80;;;;;;5098850;28;19993;-66
2023/05/13 12:57:34;;;;;;;;;;;26.10;83.30;;;;;;5098609;28;19909;-66
2023/05/13 12:59:59;;;;;;;;;;;26.30;70.30;;;;;;5098910;28;19908;-66
2023/05/13 13:02:25;;;;;;;;;;;25.80;65.60;;;;;;5098840;28;19918;-66
2023/05/13 13:04:51;;;;;;;;;;;25.40;75.30;;;;;;5098578;28;19947;-66
2023/05/13 13:07:17;;;;;;;;;;;25.50;68.80;;;;;;5098998;28;19909;-66
2023/05/13 13:09:42;;;;;;;;;;;26.10;73.80;;;;;;5098664;28;20363;-66
2023/05/13 13:12:08;;;;;;;;;;;26.50;74.60;;;;;;5098839;28;20377;-67
2023/05/13 13:14:33;;;;;;;;;;;26.50;66.80;;;;;;5098091;28;19916;-67
2023/05/13 13:16:59;;;;;;;;;;;26.10;67.80;;;;;;5098381;28;19946;-67
2023/05/13 13:19:25;;;;;;;;;;;25.90;70.20;;;;;;5098325;28;19908;-67
2023/05/13 13:21:50;;;;;;;;;;;26.30;70.90;;;;;;5098387;28;19912;-66
2023/05/13 13:24:16;;;;;;;;;;;26.60;68.70;;;;;;5098694;28;19933;-67
2023/05/13 13:26:42;;;;;;;;;;;26.30;74.80;;;;;;5098285;28;19946;-67
2023/05/13 13:29:07;;;;;;;;;;;26.80;70.90;;;;;;5098653;28;19957;-67
2023/05/13 13:31:33;;;;;;;;;;;26.70;69.30;;;;;;5098672;28;20365;-66
2023/05/13 13:34:03;;;;;;;;;;;25.50;66.90;;;;;;5098597;28;19908;-67
2023/05/13 13:36:29;;;;;;;;;;;25.60;68.40;;;;;;5098173;28;20428;-67
2023/05/13 13:38:54;;;;;;;;;;;25.80;66.90;;;;;;5098363;28;19907;-67
2023/05/13 13:41:24;;;;;;;;;;;26.30;70.60;;;;;;5098309;28;19912;-66
2023/05/13 13:43:50;;;;;;;;;;;26.70;73.40;;;;;;5098075;28;19915;-67
2023/05/13 13:46:16;;;;;;;;;;;26.80;67.30;;;;;;5098203;28;19908;-67
2023/05/13 13:48:41;;;;;;;;;;;26.60;67.60;;;;;;5098105;28;19915;-66
2023/05/13 13:51:07;;;;;;;;;;;26.00;65.60;;;;;;5098501;28;19914;-67
2023/05/13 13:53:32;;;;;;;;;;;26.10;68.70;;;;;;5098098;28;19920;-67
2023/05/13 13:55:58;;;;;;;;;;;26.30;64.10;;;;;;5098018;28;20444;-67
2023/05/13 13:58:24;;;;;;;;;;;26.30;62.10;;;;;;5097416;28;20008;-66
2023/05/13 14:00:49;;;;;;;;;;;26.10;66.80;;;;;;5097763;28;19958;-66
2023/05/13 14:03:15;;;;;;;;;;;26.20;65.50;;;;;;5097835;28;19908;-67
2023/05/13 14:05:41;;;;;;;;;;;25.80;65.80;;;;;;5097932;28;19908;-66
2023/05/13 14:08:06;;;;;;;;;;;25.70;63.00;;;;;;5098135;28;19908;-66
2023/05/13 14:10:32;;;;;;;;;;;25.40;65.00;;;;;;5097869;28;20367;-66
2023/05/13 14:12:57;;;;;;;;;;;25.30;63.80;;;;;;5097991;28;19941;-66